Time;durP1;ratioP1;P1;durP2;ratioP2;P2;SDS_P1;SDS_P2;PMS_P1;PMS_P2;Temp;Humidity;BMP_temperature;BMP_pressure;BME280_temperature;BME280_humidity;BME280_pressure;Samples;Min_cycle;Max_cycle;Signal;HPM_P1;HPM_P2
2023/08/21 00:01:52;;;;;;;8.98;3.00;;;;;;;19.18;94.15;102190.06;5048559;28;20052;-76
2023/08/21 00:04:17;;;;;;;8.82;3.13;;;;;;;19.22;94.88;102203.03;5048557;28;20032;-76
2023/08/21 00:06:43;;;;;;;9.07;3.00;;;;;;;19.22;94.89;102208.34;5047811;28;20021;-76
2023/08/21 00:09:09;;;;;;;10.57;3.10;;;;;;;19.25;94.42;102207.25;5048804;28;20040;-76
2023/08/21 00:11:34;;;;;;;10.68;3.30;;;;;;;19.22;94.04;102196.84;5047425;28;20032;-76
2023/08/21 00:14:00;;;;;;;8.20;3.58;;;;;;;19.11;94.09;102181.75;5048999;28;20052;-76
2023/08/21 00:16:26;;;;;;;9.15;3.22;;;;;;;19.03;94.05;102176.28;5049483;28;20086;-76
2023/08/21 00:18:52;;;;;;;11.68;3.20;;;;;;;18.99;93.75;102175.69;5049522;28;20025;-76
2023/08/21 00:21:19;;;;;;;10.50;3.42;;;;;;;18.92;94.23;102173.72;5048987;28;20027;-76
2023/08/21 00:23:44;;;;;;;10.30;3.33;;;;;;;18.94;94.23;102174.41;5049134;28;20090;-75
2023/08/21 00:26:10;;;;;;;10.57;3.47;;;;;;;18.87;95.07;102170.63;5049455;28;20029;-77
2023/08/21 00:28:35;;;;;;;12.75;3.90;;;;;;;18.82;94.71;102173.69;5040789;28;20017;-76
2023/08/21 00:31:04;;;;;;;9.43;3.05;;;;;;;18.81;95.85;102168.47;5029608;28;20636;-75
2023/08/21 00:33:31;;;;;;;8.35;2.95;;;;;;;18.79;95.86;102174.78;5029871;28;20025;-75
2023/08/21 00:35:57;;;;;;;9.45;3.00;;;;;;;18.78;96.04;102167.75;5032932;28;20370;-76
2023/08/21 00:38:23;;;;;;;8.20;2.60;;;;;;;18.75;96.25;102168.03;5033226;28;20017;-76
2023/08/21 00:40:48;;;;;;;6.32;2.90;;;;;;;18.72;96.14;102173.63;5030956;28;20021;-75
2023/08/21 00:43:14;;;;;;;9.48;3.08;;;;;;;18.72;96.25;102173.63;5032370;28;20113;-75
2023/08/21 00:45:42;;;;;;;8.63;3.10;;;;;;;18.67;96.92;102181.19;5032330;28;20462;-76
2023/08/21 00:48:09;;;;;;;10.63;3.00;;;;;;;18.68;97.40;102185.53;5031568;28;20057;-75
2023/08/21 00:50:35;;;;;;;8.15;2.75;;;;;;;18.73;97.31;102185.13;5032297;28;20029;-75
2023/08/21 00:53:03;;;;;;;7.82;3.00;;;;;;;18.72;96.95;102188.78;5032099;28;20423;-76
2023/08/21 00:55:29;;;;;;;8.52;3.28;;;;;;;18.62;97.24;102180.75;5048488;28;20103;-75
2023/08/21 00:57:54;;;;;;;7.88;2.72;;;;;;;18.67;97.39;102185.66;5051935;28;20029;-75
2023/08/21 01:00:21;;;;;;;8.95;3.05;;;;;;;18.66;97.90;102184.81;5051790;28;20070;-76
2023/08/21 01:02:47;;;;;;;5.53;2.80;;;;;;;18.66;98.32;102203.50;5051104;28;20089;-75
2023/08/21 01:05:12;;;;;;;8.55;3.65;;;;;;;18.69;97.28;102205.03;5051663;28;20021;-75
2023/08/21 01:07:48;;;;;;;7.10;3.25;;;;;;;18.65;97.71;102193.81;5051934;28;20532;-75
2023/08/21 01:10:23;;;;;;;9.77;3.67;;;;;;;18.59;97.65;102178.31;5050850;28;20074;-74
2023/08/21 01:13:01;;;;;;;10.63;3.45;;;;;;;18.58;97.75;102179.28;5051577;28;20017;-75
2023/08/21 01:15:27;;;;;;;9.20;3.70;;;;;;;18.53;97.57;102172.66;5050796;28;20496;-76
2023/08/21 01:17:53;;;;;;;10.32;3.13;;;;;;;18.48;97.78;102170.41;5051941;28;20060;-75
2023/08/21 01:20:19;;;;;;;10.02;3.42;;;;;;;18.46;98.08;102161.69;5052576;28;20066;-75
2023/08/21 01:22:46;;;;;;;9.20;3.53;;;;;;;18.41;98.03;102155.91;5051067;28;20465;-75
2023/08/21 01:25:12;;;;;;;7.25;3.15;;;;;;;18.41;98.78;102153.22;5051878;28;20063;-75
2023/08/21 01:27:44;;;;;;;6.25;2.83;;;;;;;18.40;98.77;102156.88;5052352;28;20036;-76
2023/08/21 01:30:10;;;;;;;7.40;3.10;;;;;;;18.40;99.07;102151.53;5032025;28;20029;-76
2023/08/21 01:32:39;;;;;;;6.13;2.88;;;;;;;18.41;99.18;102155.91;5032739;28;20396;-75
2023/08/21 01:35:06;;;;;;;8.73;2.80;;;;;;;18.40;99.00;102152.38;5031345;28;20032;-76
2023/08/21 01:37:32;;;;;;;8.05;2.83;;;;;;;18.30;99.15;102151.50;5031490;28;20036;-76
2023/08/21 01:39:58;;;;;;;8.60;2.88;;;;;;;18.23;99.70;102149.50;5032425;28;20025;-75
2023/08/21 01:42:24;;;;;;;9.30;3.40;;;;;;;18.20;100.00;102147.09;5032263;28;20417;-76
2023/08/21 01:44:49;;;;;;;9.30;2.72;;;;;;;18.14;100.00;102157.31;5030618;28;20017;-76
2023/08/21 01:47:14;;;;;;;10.43;3.30;;;;;;;18.17;100.00;102159.69;5031457;28;20516;-75
2023/08/21 01:49:40;;;;;;;7.10;2.97;;;;;;;18.14;100.00;102162.63;5031261;28;20674;-76
2023/08/21 01:52:05;;;;;;;6.82;3.15;;;;;;;18.16;100.00;102163.34;5029234;28;20025;-76
2023/08/21 01:54:30;;;;;;;7.38;2.90;;;;;;;18.11;100.00;102162.06;5038769;28;20032;-75
2023/08/21 01:56:56;;;;;;;8.60;3.28;;;;;;;18.03;100.00;102173.34;5050813;28;20029;-76
2023/08/21 01:59:24;;;;;;;9.90;3.65;;;;;;;17.96;100.00;102182.81;5048771;28;20096;-76
2023/08/21 02:01:49;;;;;;;8.93;3.50;;;;;;;17.92;100.00;102178.72;5049297;28;20485;-76
2023/08/21 02:04:14;;;;;;;8.27;3.60;;;;;;;17.97;100.00;102181.84;5050548;28;20024;-76
2023/08/21 02:06:40;;;;;;;8.25;3.33;;;;;;;17.90;100.00;102180.66;5050354;28;20024;-76
2023/08/21 02:09:06;;;;;;;7.68;3.25;;;;;;;17.92;100.00;102175.22;5050818;28;20012;-77
2023/08/21 02:11:32;;;;;;;6.57;3.30;;;;;;;17.89;100.00;102178.13;5050385;28;20056;-76
2023/08/21 02:13:57;;;;;;;8.90;3.58;;;;;;;17.87;100.00;102180.09;5050022;28;20262;-76
2023/08/21 02:16:22;;;;;;;10.38;3.85;;;;;;;17.85;100.00;102177.53;5050355;28;20107;-77
2023/08/21 02:18:48;;;;;;;9.70;3.85;;;;;;;17.80;100.00;102169.94;5050268;28;20052;-77
2023/08/21 02:21:13;;;;;;;9.07;3.67;;;;;;;17.76;100.00;102173.00;5049687;28;20025;-77
2023/08/21 02:23:39;;;;;;;8.90;3.50;;;;;;;17.75;100.00;102172.16;5050918;28;20477;-77
2023/08/21 02:26:04;;;;;;;10.93;4.10;;;;;;;17.74;100.00;102170.47;5051543;28;20025;-77
2023/08/21 02:28:29;;;;;;;9.20;3.67;;;;;;;17.69;100.00;102171.81;5043458;28;20031;-76
2023/08/21 02:30:55;;;;;;;7.38;3.72;;;;;;;17.68;100.00;102170.13;5031428;28;20049;-76
2023/08/21 02:33:20;;;;;;;9.32;3.75;;;;;;;17.62;100.00;102167.94;5030872;28;20108;-77
2023/08/21 02:35:45;;;;;;;7.57;3.50;;;;;;;17.62;100.00;102170.63;5031063;28;20041;-76
2023/08/21 02:38:11;;;;;;;6.85;3.60;;;;;;;17.57;100.00;102167.47;5031386;28;20025;-76
2023/08/21 02:40:36;;;;;;;9.88;3.92;;;;;;;17.49;100.00;102162.78;5030901;28;20461;-76
2023/08/21 02:43:02;;;;;;;9.75;3.85;;;;;;;17.49;100.00;102166.28;5030008;28;20079;-77
2023/08/21 02:45:27;;;;;;;11.13;4.13;;;;;;;17.45;100.00;102172.81;5029725;28;20565;-77
2023/08/21 02:47:53;;;;;;;8.80;3.85;;;;;;;17.38;100.00;102173.47;5030274;28;20053;-77
2023/08/21 02:50:18;;;;;;;10.60;3.70;;;;;;;17.37;100.00;102177.94;5030950;28;20107;-77
2023/08/21 02:52:43;;;;;;;12.77;4.57;;;;;;;17.29;100.00;102171.56;5030697;28;20025;-77
2023/08/21 02:55:09;;;;;;;7.85;3.63;;;;;;;17.30;100.00;102171.44;5042821;28;20195;-77
2023/08/21 02:57:34;;;;;;;8.27;3.72;;;;;;;17.29;100.00;102174.22;5049871;28;20481;-76
2023/08/21 03:00:00;;;;;;;7.75;4.07;;;;;;;17.23;100.00;102175.56;5048547;28;20032;-75
2023/08/21 03:02:25;;;;;;;12.45;4.13;;;;;;;17.22;100.00;102172.06;5048941;28;20021;-75
2023/08/21 03:04:51;;;;;;;8.30;3.78;;;;;;;17.15;100.00;102169.97;5049414;28;20090;-75
2023/08/21 03:07:18;;;;;;;12.18;4.20;;;;;;;17.13;100.00;102169.25;5048218;28;20381;-75
2023/08/21 03:09:45;;;;;;;8.95;4.22;;;;;;;17.11;100.00;102165.88;5048785;28;20025;-75
2023/08/21 03:12:11;;;;;;;6.35;3.90;;;;;;;17.16;100.00;102169.00;5048138;28;20531;-76
2023/08/21 03:14:36;;;;;;;9.70;4.10;;;;;;;17.10;100.00;102169.50;5049595;28;20021;-76
2023/08/21 03:17:02;;;;;;;10.68;3.72;;;;;;;17.06;100.00;102174.25;5048804;28;20374;-76
2023/08/21 03:19:27;;;;;;;9.43;4.22;;;;;;;16.98;100.00;102175.81;5049261;28;20075;-76
2023/08/21 03:21:52;;;;;;;10.57;4.00;;;;;;;16.99;100.00;102178.38;5049084;28;20021;-76
2023/08/21 03:24:18;;;;;;;9.23;3.63;;;;;;;16.99;100.00;102177.50;5048831;28;20052;-76
2023/08/21 03:26:44;;;;;;;9.80;3.92;;;;;;;16.96;100.00;102180.41;5048864;28;20095;-76
2023/08/21 03:29:09;;;;;;;15.48;3.70;;;;;;;16.94;100.00;102182.34;5036838;28;20101;-76
2023/08/21 03:31:35;;;;;;;11.90;4.38;;;;;;;16.90;100.00;102181.75;5028889;28;20034;-76
2023/08/21 03:34:00;;;;;;;17.15;4.03;;;;;;;16.89;100.00;102183.56;5030203;28;20063;-76
2023/08/21 03:36:31;;;;;;;13.77;4.22;;;;;;;16.88;100.00;102187.19;5029917;28;20025;-76
2023/08/21 03:38:57;;;;;;;15.80;4.38;;;;;;;16.86;100.00;102178.50;5028979;28;20382;-76
2023/08/21 03:41:23;;;;;;;21.20;4.28;;;;;;;16.87;100.00;102179.34;5030102;28;20025;-75
2023/08/21 03:43:48;;;;;;;11.68;3.70;;;;;;;16.86;100.00;102172.34;5027882;28;20036;-76
2023/08/21 03:46:13;;;;;;;16.02;4.22;;;;;;;16.83;100.00;102178.75;5029477;28;20442;-75
2023/08/21 03:48:39;;;;;;;11.52;4.22;;;;;;;16.81;100.00;102171.81;5028753;28;20075;-76
2023/08/21 03:51:04;;;;;;;13.50;4.25;;;;;;;16.75;100.00;102172.31;5027315;28;20036;-75
2023/08/21 03:53:30;;;;;;;10.13;3.70;;;;;;;16.77;100.00;102173.88;5028397;28;20025;-76
2023/08/21 03:55:55;;;;;;;12.23;4.28;;;;;;;16.75;100.00;102170.50;5029914;28;20029;-76
2023/08/21 03:58:20;;;;;;;12.65;4.10;;;;;;;16.72;100.00;102170.75;5027194;28;20025;-76
2023/08/21 04:00:46;;;;;;;10.00;3.47;;;;;;;16.71;100.00;102169.06;5027346;28;20099;-76
2023/08/21 04:03:11;;;;;;;11.00;4.38;;;;;;;16.67;100.00;102167.59;5028575;28;20112;-76
2023/08/21 04:05:37;;;;;;;11.98;3.67;;;;;;;16.66;100.00;102171.22;5028583;28;20021;-76
2023/08/21 04:08:03;;;;;;;13.23;3.90;;;;;;;16.65;100.00;102168.66;5030199;28;20021;-76
2023/08/21 04:10:28;;;;;;;7.35;3.53;;;;;;;16.56;100.00;102172.91;5033894;28;20039;-76
2023/08/21 04:12:53;;;;;;;8.80;3.35;;;;;;;16.57;100.00;102169.28;5034618;28;20471;-76
2023/08/21 04:15:19;;;;;;;8.25;3.70;;;;;;;16.56;100.00;102180.88;5035256;28;20021;-75
2023/08/21 04:17:44;;;;;;;8.70;3.38;;;;;;;16.56;100.00;102184.38;5034776;28;20029;-74
2023/08/21 04:20:10;;;;;;;9.77;3.95;;;;;;;16.58;100.00;102189.56;5034673;28;20017;-75
2023/08/21 04:22:36;;;;;;;8.70;3.90;;;;;;;16.58;100.00;102186.91;5035400;28;20377;-75
2023/08/21 04:25:01;;;;;;;13.32;4.28;;;;;;;16.61;100.00;102194.63;5033977;28;20029;-75
2023/08/21 04:27:26;;;;;;;14.93;4.70;;;;;;;16.61;100.00;102187.50;5034584;28;20056;-75
2023/08/21 04:29:53;;;;;;;20.38;4.68;;;;;;;16.60;100.00;102188.47;5053154;28;20024;-75
2023/08/21 04:32:18;;;;;;;13.93;4.35;;;;;;;16.69;100.00;102194.06;5055108;28;20025;-75
2023/08/21 04:34:43;;;;;;;10.00;4.57;;;;;;;16.68;100.00;102201.19;5054733;28;20369;-75
2023/08/21 04:37:09;;;;;;;10.20;4.43;;;;;;;16.67;100.00;102196.84;5054930;28;20025;-76
2023/08/21 04:39:36;;;;;;;9.45;4.00;;;;;;;16.71;100.00;102195.63;5056303;28;20025;-76
2023/08/21 04:42:01;;;;;;;11.80;4.32;;;;;;;16.72;100.00;102194.66;5055822;28;20478;-75
2023/08/21 04:44:27;;;;;;;10.50;4.03;;;;;;;16.80;100.00;102192.25;5054712;28;20383;-76
2023/08/21 04:46:52;;;;;;;7.80;4.20;;;;;;;16.79;100.00;102203.84;5054807;28;20041;-76
2023/08/21 04:49:18;;;;;;;8.65;4.45;;;;;;;16.82;100.00;102198.31;5056086;28;20147;-76
2023/08/21 04:51:43;;;;;;;10.25;4.40;;;;;;;16.85;100.00;102203.41;5055858;28;20552;-76
2023/08/21 04:54:08;;;;;;;11.50;4.40;;;;;;;16.86;100.00;102199.78;5047707;28;20041;-76
2023/08/21 04:56:35;;;;;;;10.63;4.68;;;;;;;16.88;100.00;102207.63;5036266;28;20049;-76
2023/08/21 04:59:00;;;;;;;13.00;4.50;;;;;;;16.87;100.00;102211.25;5036014;28;20440;-76
2023/08/21 05:01:26;;;;;;;7.20;4.50;;;;;;;16.88;100.00;102211.13;5035418;28;20124;-76
2023/08/21 05:03:51;;;;;;;10.10;4.47;;;;;;;16.87;100.00;102208.59;5034785;28;20029;-77
2023/08/21 05:06:16;;;;;;;10.07;4.53;;;;;;;16.85;100.00;102214.03;5035128;28;20083;-76
2023/08/21 05:08:42;;;;;;;8.40;4.20;;;;;;;16.81;100.00;102207.25;5034122;28;20072;-77
2023/08/21 05:11:08;;;;;;;8.75;4.65;;;;;;;16.84;100.00;102214.16;5033893;28;20468;-77
2023/08/21 05:13:33;;;;;;;9.13;4.45;;;;;;;16.80;100.00;102210.84;5034048;28;20029;-77
2023/08/21 05:15:59;;;;;;;9.60;4.70;;;;;;;16.84;100.00;102211.50;5034560;28;20057;-77
2023/08/21 05:18:25;;;;;;;8.60;4.38;;;;;;;16.81;100.00;102214.34;5033773;28;20053;-76
2023/08/21 05:20:55;;;;;;;9.65;4.97;;;;;;;16.80;100.00;102216.16;5030555;28;20079;-77
2023/08/21 05:23:21;;;;;;;12.07;5.18;;;;;;;16.83;100.00;102221.28;5031140;28;20022;-77
2023/08/21 05:25:49;;;;;;;16.55;5.22;;;;;;;16.83;100.00;102229.25;5031638;28;20536;-77
2023/08/21 05:28:14;;;;;;;14.55;5.32;;;;;;;16.92;100.00;102230.34;5036250;28;20477;-77
2023/08/21 05:30:39;;;;;;;14.15;5.20;;;;;;;16.99;100.00;102233.34;5051013;28;20104;-76
2023/08/21 05:33:06;;;;;;;11.15;5.07;;;;;;;17.06;100.00;102223.91;5051715;28;20045;-76
2023/08/21 05:35:37;;;;;;;14.05;5.25;;;;;;;17.16;100.00;102232.84;5051486;28;20374;-76
2023/08/21 05:38:03;;;;;;;20.63;6.50;;;;;;;17.21;100.00;102220.03;5051136;28;20028;-76
2023/08/21 05:40:29;;;;;;;12.07;5.22;;;;;;;17.31;100.00;102223.66;5051662;28;20188;-76
2023/08/21 05:42:54;;;;;;;11.50;5.20;;;;;;;17.36;100.00;102229.47;5051433;28;20021;-76
2023/08/21 05:45:20;;;;;;;11.57;5.18;;;;;;;17.45;100.00;102228.72;5049998;28;20025;-76
2023/08/21 05:47:45;;;;;;;13.80;5.38;;;;;;;17.47;100.00;102226.75;5051686;28;20053;-76
2023/08/21 05:50:11;;;;;;;12.07;5.50;;;;;;;17.51;100.00;102228.19;5050262;28;20095;-76
2023/08/21 05:52:36;;;;;;;18.83;5.90;;;;;;;17.54;100.00;102230.63;5052550;28;20021;-76
2023/08/21 05:55:01;;;;;;;19.65;5.90;;;;;;;17.55;100.00;102229.63;5038545;28;20072;-76
2023/08/21 05:57:27;;;;;;;14.82;6.07;;;;;;;17.57;100.00;102229.50;5031464;28;20393;-76
2023/08/21 05:59:52;;;;;;;12.77;5.78;;;;;;;17.62;100.00;102229.16;5032043;28;20466;-76
2023/08/21 06:02:18;;;;;;;11.50;5.18;;;;;;;17.66;100.00;102230.59;5032090;28;20026;-76
2023/08/21 06:04:43;;;;;;;14.85;5.90;;;;;;;17.69;100.00;102230.38;5031490;28;20033;-76
2023/08/21 06:07:09;;;;;;;12.52;6.53;;;;;;;17.73;100.00;102234.47;5032034;28;20026;-76
2023/08/21 06:09:36;;;;;;;12.55;6.07;;;;;;;17.76;100.00;102236.91;5032290;28;20556;-76
2023/08/21 06:12:02;;;;;;;9.52;6.15;;;;;;;17.78;100.00;102234.94;5031191;28;20157;-77
2023/08/21 06:14:31;;;;;;;13.90;6.40;;;;;;;17.85;100.00;102236.97;5031316;28;20094;-76
2023/08/21 06:17:01;;;;;;;12.38;6.95;;;;;;;17.91;100.00;102243.59;5031157;28;20021;-76
2023/08/21 06:19:27;;;;;;;11.10;6.18;;;;;;;17.95;100.00;102245.03;5030060;28;20478;-76
2023/08/21 06:21:52;;;;;;;12.60;6.82;;;;;;;17.97;100.00;102247.56;5030635;28;20028;-76
2023/08/21 06:24:17;;;;;;;12.52;7.07;;;;;;;18.05;100.00;102245.16;5030703;28;20616;-76
2023/08/21 06:26:43;;;;;;;11.25;7.22;;;;;;;18.11;100.00;102257.94;5029997;28;20515;-76
2023/08/21 06:29:08;;;;;;;18.33;7.38;;;;;;;18.15;100.00;102252.22;5029137;28;20036;-76
2023/08/21 06:31:33;;;;;;;12.77;7.30;;;;;;;18.23;100.00;102250.75;5029394;28;20025;-76
2023/08/21 06:33:59;;;;;;;14.00;7.65;;;;;;;18.31;100.00;102248.28;5029789;28;20045;-76
2023/08/21 06:36:24;;;;;;;18.52;8.55;;;;;;;18.40;100.00;102258.16;5030433;28;20029;-76
2023/08/21 06:38:50;;;;;;;17.90;7.57;;;;;;;18.49;100.00;102252.06;5030052;28;20397;-76
2023/08/21 06:41:15;;;;;;;15.43;6.95;;;;;;;18.56;100.00;102253.22;5029703;28;20029;-76
2023/08/21 06:43:41;;;;;;;14.15;7.22;;;;;;;18.70;100.00;102249.41;5028948;28;20095;-76
2023/08/21 06:46:10;;;;;;;12.68;6.68;;;;;;;18.82;100.00;102252.84;5029037;28;20025;-76
2023/08/21 06:48:38;;;;;;;13.55;6.72;;;;;;;18.84;100.00;102257.06;5029920;28;20033;-76
2023/08/21 06:51:04;;;;;;;12.93;6.53;;;;;;;18.99;100.00;102250.38;5028837;28;20029;-76
2023/08/21 06:53:30;;;;;;;13.45;6.68;;;;;;;19.07;100.00;102252.38;5030369;28;20079;-76
2023/08/21 06:55:55;;;;;;;11.93;7.03;;;;;;;19.27;100.00;102254.16;5049974;28;20029;-76
2023/08/21 06:58:21;;;;;;;16.02;6.97;;;;;;;19.39;99.94;102253.06;5050156;28;20033;-76
2023/08/21 07:00:46;;;;;;;12.60;6.70;;;;;;;19.48;100.00;102255.88;5049989;28;20033;-77
2023/08/21 07:03:11;;;;;;;13.38;6.28;;;;;;;19.53;100.00;102254.53;5050637;28;20061;-76
2023/08/21 07:05:37;;;;;;;12.45;6.57;;;;;;;19.55;100.00;102263.25;5050990;28;20103;-77
2023/08/21 07:08:03;;;;;;;12.75;6.60;;;;;;;19.66;99.57;102263.16;5050177;28;20025;-76
2023/08/21 07:10:29;;;;;;;13.15;7.78;;;;;;;19.70;98.41;102250.34;5050554;28;20032;-77
2023/08/21 07:12:54;;;;;;;17.08;7.18;;;;;;;19.77;97.70;102248.81;5049099;28;20999;-76
2023/08/21 07:15:20;;;;;;;11.73;6.65;;;;;;;19.82;96.46;102249.22;5049909;28;20385;-76
2023/08/21 07:17:45;;;;;;;14.70;7.28;;;;;;;20.08;96.57;102254.88;5050390;28;20024;-75
2023/08/21 07:20:11;;;;;;;12.85;7.13;;;;;;;20.25;95.22;102254.16;5050282;28;20028;-75
2023/08/21 07:22:37;;;;;;;12.23;6.30;;;;;;;20.43;94.39;102254.31;5049981;28;20121;-75
2023/08/21 07:25:04;;;;;;;13.27;6.55;;;;;;;20.63;94.69;102253.28;5049343;28;20496;-75
2023/08/21 07:27:30;;;;;;;11.80;6.78;;;;;;;20.86;92.19;102258.28;5050280;28;20495;-76
2023/08/21 07:29:56;;;;;;;12.85;4.95;;;;;;;21.08;87.99;102252.56;5029765;28;20116;-76
2023/08/21 07:32:21;;;;;;;10.52;5.40;;;;;;;21.25;86.75;102254.50;5028127;28;20109;-76
2023/08/21 07:34:47;;;;;;;12.80;5.28;;;;;;;21.54;85.23;102257.00;5029217;28;20358;-76
2023/08/21 07:37:12;;;;;;;10.63;5.40;;;;;;;21.77;83.69;102264.63;5028595;28;20025;-76
2023/08/21 07:39:38;;;;;;;9.82;3.95;;;;;;;22.04;84.20;102253.03;5028239;28;20128;-76
2023/08/21 07:42:03;;;;;;;12.05;4.68;;;;;;;22.16;80.76;102249.94;5028909;28;20029;-76
2023/08/21 07:44:29;;;;;;;9.02;2.72;;;;;;;22.24;72.89;102248.31;5028264;28;20029;-76
2023/08/21 07:46:54;;;;;;;9.13;2.97;;;;;;;22.37;73.05;102252.25;5028638;28;20402;-75
2023/08/21 07:49:19;;;;;;;8.10;2.70;;;;;;;22.51;72.17;102261.59;5029042;28;20117;-75
2023/08/21 07:51:45;;;;;;;7.85;3.00;;;;;;;22.68;73.91;102260.69;5028518;28;20017;-75
2023/08/21 07:54:10;;;;;;;9.98;2.75;;;;;;;22.79;74.78;102259.59;5034163;28;20386;-75
2023/08/21 07:56:37;;;;;;;6.30;2.95;;;;;;;22.90;71.13;102266.56;5049285;28;20082;-75
2023/08/21 07:59:03;;;;;;;9.85;3.22;;;;;;;23.07;72.83;102261.13;5047195;28;20076;-75
2023/08/21 08:01:28;;;;;;;6.80;2.60;;;;;;;23.19;71.85;102267.03;5048883;28;20104;-75
2023/08/21 08:03:53;;;;;;;9.20;2.92;;;;;;;23.44;72.43;102265.28;5047050;28;20033;-76
2023/08/21 08:06:19;;;;;;;9.77;3.20;;;;;;;23.57;68.94;102271.06;5048760;28;20500;-75
2023/08/21 08:08:44;;;;;;;6.90;2.53;;;;;;;23.78;66.62;102261.72;5049661;28;20024;-75
2023/08/21 08:11:10;;;;;;;7.10;2.88;;;;;;;23.79;66.95;102269.63;5047939;28;20024;-75
2023/08/21 08:13:35;;;;;;;9.10;2.75;;;;;;;24.03;68.35;102260.75;5048879;28;20104;-75
2023/08/21 08:16:00;;;;;;;9.10;2.83;;;;;;;24.33;67.01;102261.94;5049779;28;20214;-75
2023/08/21 08:18:26;;;;;;;7.40;2.75;;;;;;;24.58;65.37;102260.06;5049036;28;20409;-75
2023/08/21 08:20:52;;;;;;;7.13;2.40;;;;;;;25.03;63.25;102269.41;5049240;28;20029;-75
2023/08/21 08:23:19;;;;;;;6.97;2.47;;;;;;;25.09;59.81;102269.56;5048190;28;20496;-75
2023/08/21 08:25:44;;;;;;;6.88;2.72;;;;;;;25.04;59.91;102266.53;5048863;28;20032;-75
2023/08/21 08:28:10;;;;;;;7.68;2.83;;;;;;;24.74;60.02;102270.78;5045396;28;20421;-75
2023/08/21 08:30:35;;;;;;;7.78;2.78;;;;;;;25.16;62.75;102264.31;5029926;28;20029;-75
2023/08/21 08:33:00;;;;;;;7.68;2.45;;;;;;;25.29;61.79;102261.91;5027749;28;20522;-75
2023/08/21 08:35:26;;;;;;;9.63;3.00;;;;;;;25.36;56.83;102264.72;5029038;28;20029;-75
2023/08/21 08:37:51;;;;;;;7.22;2.20;;;;;;;25.51;60.40;102262.94;5028629;28;20359;-76
2023/08/21 08:40:17;;;;;;;6.63;2.20;;;;;;;25.72;58.34;102259.66;5028153;28;20030;-75
2023/08/21 08:42:42;;;;;;;7.65;2.28;;;;;;;25.81;56.10;102264.81;5028375;28;20022;-75
2023/08/21 08:45:08;;;;;;;6.72;2.17;;;;;;;25.65;57.79;102264.91;5028728;28;20575;-75
2023/08/21 08:47:34;;;;;;;9.20;2.45;;;;;;;25.53;56.89;102267.16;5028104;28;20057;-75
2023/08/21 08:50:10;;;;;;;6.82;2.40;;;;;;;25.77;56.42;102276.16;5028396;28;20025;-75
2023/08/21 08:52:39;;;;;;;7.32;2.22;;;;;;;25.73;57.25;102274.84;5027742;28;20036;-75
2023/08/21 08:55:06;;;;;;;6.47;2.33;;;;;;;25.54;56.66;102268.81;5044538;28;20548;-75
2023/08/21 08:57:32;;;;;;;7.93;2.28;;;;;;;25.58;56.56;102272.84;5052128;28;20106;-75
2023/08/21 08:59:58;;;;;;;7.32;2.13;;;;;;;25.47;56.98;102267.03;5052020;28;20029;-75
2023/08/21 09:02:26;;;;;;;6.97;1.90;;;;;;;25.41;58.20;102273.97;5051488;28;20027;-74
2023/08/21 09:04:51;;;;;;;8.27;2.08;;;;;;;25.51;56.69;102269.19;5051903;28;20421;-75
2023/08/21 09:07:19;;;;;;;5.93;1.75;;;;;;;25.65;57.44;102264.06;5051340;28;20112;-75
2023/08/21 09:09:46;;;;;;;5.47;1.88;;;;;;;25.51;58.23;102261.09;5051627;28;20020;-75
2023/08/21 09:12:14;;;;;;;7.40;2.33;;;;;;;25.33;58.04;102270.47;5052144;28;20025;-75
2023/08/21 09:14:40;;;;;;;6.93;2.65;;;;;;;25.41;57.16;102260.50;5052621;28;20104;-75
2023/08/21 09:17:06;;;;;;;8.00;2.13;;;;;;;25.70;56.62;102261.72;5053149;28;20036;-75
2023/08/21 09:19:32;;;;;;;7.45;1.90;;;;;;;25.76;55.13;102255.59;5052666;28;20455;-76
2023/08/21 09:21:57;;;;;;;5.55;1.80;;;;;;;26.11;56.85;102254.16;5051740;28;20056;-76
2023/08/21 09:24:23;;;;;;;8.13;2.33;;;;;;;26.35;55.89;102255.81;5052657;28;20437;-76
2023/08/21 09:26:49;;;;;;;7.05;2.53;;;;;;;26.52;54.30;102260.06;5051257;28;20438;-76
2023/08/21 09:29:14;;;;;;;5.82;2.30;;;;;;;26.88;53.92;102262.03;5039230;28;20025;-76
2023/08/21 09:31:40;;;;;;;7.95;1.80;;;;;;;27.14;53.95;102257.00;5032790;28;20478;-76
2023/08/21 09:34:05;;;;;;;6.95;2.10;;;;;;;27.46;52.81;102250.34;5032833;28;20021;-76
2023/08/21 09:36:31;;;;;;;7.60;2.00;;;;;;;27.61;53.02;102251.16;5030760;28;20021;-76
2023/08/21 09:38:57;;;;;;;8.65;2.40;;;;;;;27.66;50.69;102256.00;5032422;28;20033;-76
2023/08/21 09:41:23;;;;;;;8.77;1.92;;;;;;;27.66;49.76;102256.84;5030623;28;20029;-76
2023/08/21 09:43:50;;;;;;;7.32;2.00;;;;;;;27.82;50.54;102250.34;5031578;28;20029;-75
2023/08/21 09:46:16;;;;;;;4.18;1.55;;;;;;;27.66;50.85;102250.59;5031442;28;20475;-76
2023/08/21 09:48:44;;;;;;;7.38;1.75;;;;;;;27.61;51.57;102251.16;5031217;28;20056;-76
2023/08/21 09:51:10;;;;;;;10.35;2.03;;;;;;;27.56;47.59;102252.72;5030855;28;20032;-76
2023/08/21 09:53:36;;;;;;;9.88;1.60;;;;;;;27.62;49.46;102249.28;5033368;28;20381;-76
2023/08/21 09:56:04;;;;;;;6.50;1.73;;;;;;;27.26;49.71;102243.88;5051307;28;20016;-76
2023/08/21 09:58:30;;;;;;;8.50;2.03;;;;;;;27.34;49.71;102244.59;5050637;28;20082;-76
2023/08/21 10:00:59;;;;;;;4.95;1.90;;;;;;;27.58;50.01;102247.97;5050847;28;20111;-76
2023/08/21 10:03:26;;;;;;;6.32;1.85;;;;;;;27.59;50.15;102250.47;5049106;28;20025;-76
2023/08/21 10:05:54;;;;;;;6.18;1.85;;;;;;;27.93;48.94;102247.09;5050200;28;20107;-76
2023/08/21 10:08:25;;;;;;;7.75;1.60;;;;;;;28.04;46.53;102241.19;5050953;28;20439;-76
2023/08/21 10:10:50;;;;;;;6.15;1.60;;;;;;;28.09;48.84;102233.31;5049098;28;20076;-76
2023/08/21 10:13:16;;;;;;;8.63;1.88;;;;;;;28.29;48.19;102228.09;5049306;28;20033;-76
2023/08/21 10:15:42;;;;;;;7.07;1.95;;;;;;;28.38;46.21;102229.59;5050875;28;20025;-76
2023/08/21 10:18:29;;;;;;;7.15;1.70;;;;;;;28.38;46.93;102224.19;5050353;28;20079;-76
2023/08/21 10:20:54;;;;;;;5.82;1.80;;;;;;;27.78;45.66;102212.00;5050528;28;20385;-76
2023/08/21 10:23:28;;;;;;;4.90;1.50;;;;;;;28.10;47.25;102223.34;5051460;28;20036;-76
2023/08/21 10:25:55;;;;;;;5.40;1.38;;;;;;;28.34;44.94;102222.06;5050915;28;20082;-75
2023/08/21 10:28:21;;;;;;;4.78;1.40;;;;;;;28.69;46.60;102215.66;5045760;28;20028;-76
2023/08/21 10:30:46;;;;;;;8.50;1.95;;;;;;;29.16;44.77;102227.56;5031176;28;20029;-76
2023/08/21 10:33:12;;;;;;;4.63;1.50;;;;;;;29.11;43.18;102219.22;5030895;28;20096;-76
2023/08/21 10:35:37;;;;;;;7.13;1.70;;;;;;;29.00;45.48;102217.94;5031672;28;20529;-76
2023/08/21 10:38:15;;;;;;;6.15;1.58;;;;;;;29.03;46.49;102227.53;5031543;28;20090;-76
2023/08/21 10:40:59;;;;;;;5.97;1.67;;;;;;;28.82;44.15;102219.44;5029499;28;20032;-75
2023/08/21 10:43:39;;;;;;;5.00;1.52;;;;;;;28.97;46.31;102222.91;5029819;28;20088;-75
2023/08/21 10:46:04;;;;;;;6.55;1.67;;;;;;;28.85;44.01;102221.81;5031161;28;20060;-76
2023/08/21 10:48:30;;;;;;;4.43;1.40;;;;;;;28.87;44.18;102225.16;5031446;28;20033;-77
2023/08/21 10:50:55;;;;;;;4.82;1.30;;;;;;;28.81;43.62;102223.19;5031243;28;20028;-74
2023/08/21 10:53:23;;;;;;;6.40;1.60;;;;;;;28.59;44.84;102227.88;5029324;28;20025;-75
2023/08/21 10:55:54;;;;;;;5.20;1.48;;;;;;;28.44;46.66;102227.16;5011106;28;20062;-75
2023/08/21 10:58:19;;;;;;;8.43;1.77;;;;;;;28.44;44.80;102228.00;5011329;28;20026;-75
2023/08/21 11:00:44;;;;;;;7.20;1.52;;;;;;;28.56;47.00;102229.13;5010000;28;20025;-75
2023/08/21 11:03:10;;;;;;;4.10;1.10;;;;;;;28.75;44.63;102218.59;5008843;28;20029;-75
2023/08/21 11:05:35;;;;;;;6.85;1.92;;;;;;;28.83;43.64;102227.41;5010762;28;20137;-75
2023/08/21 11:08:01;;;;;;;6.15;1.40;;;;;;;28.88;43.13;102226.84;5009399;28;20193;-76
2023/08/21 11:10:29;;;;;;;5.22;1.75;;;;;;;28.88;41.40;102224.13;5008986;28;20036;-75
2023/08/21 11:12:56;;;;;;;6.75;1.70;;;;;;;28.61;41.85;102221.22;5010117;28;20094;-76
2023/08/21 11:15:23;;;;;;;5.95;1.65;;;;;;;28.61;43.85;102217.69;5009772;28;20532;-76